ROTAER D-AMDT 10/19 Ver Mudanças

PLATAFORMA P-25 ( SBLB ) / MACAÉ, RJ 22 06 34S/039 55 01W
HD PRIV UTC-3 HJ 22 (72)
SBCW (CINDACTA 2)
MET -

[1] [2] (22) 2792-2534 CMA 1,2,3,4

RMK -

REGULAMENTOS PARA TRÁFEGO LOCAL
  1. OPS HEL TKOF DA AREA DE RESPONSABILIDADE DAS RDO ENCHOVA, RDO MARLIM E RDO ALBACORA DEVERAO APRESENTAR PVC NO AD DE ORIGEM NO CONTINENTE E HEL REALIZANDO FLT TRANSLADO BTN AS PLATAFORMAS PODERAO APRESENTAR PLN VIA RADIOTELEFONIA PARA AS RDO ENCHOVA, RDO MARLIM E RDO ALBACORA
COMPL -
  • [1] (DLY 0900-2100)
  • [2] OPR PETROBRAS
TEMP (2)
INFOTEMP CW0470R/20
MET CMA (1 A 4) CLSD

Duração: 06/04/20 00:00 a 01/07/20 23:59 UTC | Divulgação: 03/04/2020 18:24

RevogadoINFOTEMP CW0469R/20
MET CMA (1 A 4) CLSD

Duração: 06/04/20 00:00 a 01/07/20 23:59 UTC | Divulgação: 03/04/2020 18:22


Suplementos AIP (0)

NOTAM (1)

CNS

Z0498/20 R Z2107/18 31/03/2020 00:24
NDB LBA 210.00KHZ RETIRADO
REF: AIP ENR 6 L2/H2


Nascer/Por do Sol

09:13

20:03


METAR

060800Z AUTO 02011KT 9999 NCD 24/18 Q1020 W24/S4=

TAF


Cartas (2)

IAC


SID



Rotas Preferenciais (0)